Time;durP1;ratioP1;P1;durP2;ratioP2;P2;SDS_P1;SDS_P2;PMS_P1;PMS_P2;Temp;Humidity;BMP_temperature;BMP_pressure;BME280_temperature;BME280_humidity;BME280_pressure;Samples;Min_cycle;Max_cycle;Signal;HPM_P1;HPM_P2
2023/09/16 00:02:16;;;;;;;22.73;16.33;;;;;;;20.57;87.67;99656.41;4989393;28;20507;-69
2023/09/16 00:04:41;;;;;;;21.20;16.15;;;;;;;20.79;86.15;99655.66;4993891;28;20039;-69
2023/09/16 00:07:07;;;;;;;18.75;15.00;;;;;;;20.61;87.22;99662.91;4992964;28;20058;-69
2023/09/16 00:09:33;;;;;;;20.38;17.20;;;;;;;20.71;87.14;99660.50;4993917;28;20034;-69
2023/09/16 00:12:00;;;;;;;27.42;17.25;;;;;;;20.87;86.03;99663.84;4994145;28;20118;-69
2023/09/16 00:14:25;;;;;;;21.45;15.80;;;;;;;20.94;85.28;99667.94;4994048;28;20407;-69
2023/09/16 00:16:52;;;;;;;23.05;17.42;;;;;;;20.92;86.27;99659.78;4993374;28;20034;-69
2023/09/16 00:19:19;;;;;;;23.20;17.73;;;;;;;20.94;86.11;99668.75;4991767;28;20217;-69
2023/09/16 00:21:45;;;;;;;21.60;17.05;;;;;;;21.00;86.20;99672.03;4992904;28;20426;-69
2023/09/16 00:24:11;;;;;;;21.77;17.38;;;;;;;20.99;86.41;99676.06;4991404;28;20022;-69
2023/09/16 00:26:39;;;;;;;24.67;19.02;;;;;;;20.60;88.76;99664.13;4993303;28;20045;-69
2023/09/16 00:29:06;;;;;;;21.27;19.00;;;;;;;20.53;89.96;99672.63;4992180;28;20022;-69
2023/09/16 00:31:33;;;;;;;27.80;20.52;;;;;;;20.33;92.05;99664.41;4974125;28;20021;-69
2023/09/16 00:33:59;;;;;;;23.30;19.35;;;;;;;20.38;92.29;99663.22;4974193;28;20034;-69
2023/09/16 00:36:24;;;;;;;26.13;21.00;;;;;;;20.48;91.90;99667.31;4974003;28;20027;-69
2023/09/16 00:38:50;;;;;;;25.80;20.10;;;;;;;20.09;94.53;99665.88;4976369;28;20036;-69
2023/09/16 00:41:16;;;;;;;26.60;21.15;;;;;;;20.19;94.74;99667.16;4991796;28;20026;-69
2023/09/16 00:43:41;;;;;;;24.45;19.10;;;;;;;20.45;92.86;99662.44;4993486;28;20023;-69
2023/09/16 00:46:06;;;;;;;27.75;18.55;;;;;;;20.59;91.79;99668.16;4980805;28;20034;-69
2023/09/16 00:48:32;;;;;;;28.15;18.95;;;;;;;20.67;90.86;99679.59;4973816;28;20121;-69
2023/09/16 00:50:58;;;;;;;32.08;21.17;;;;;;;20.62;90.97;99672.25;4990809;28;20026;-69
2023/09/16 00:53:26;;;;;;;24.95;20.25;;;;;;;20.25;93.08;99682.59;4992916;28;20026;-69
2023/09/16 00:55:52;;;;;;;27.30;21.55;;;;;;;19.89;96.85;99685.16;4977801;28;20035;-69
2023/09/16 00:58:17;;;;;;;23.60;21.10;;;;;;;19.81;97.39;99692.00;4975533;28;20110;-69
2023/09/16 01:00:47;;;;;;;26.30;21.52;;;;;;;19.56;100.00;99695.44;4992771;28;20089;-69
2023/09/16 01:03:14;;;;;;;31.13;23.17;;;;;;;19.49;100.00;99708.34;4992479;28;20050;-69
2023/09/16 01:05:40;;;;;;;27.13;22.65;;;;;;;19.40;100.00;99713.50;4992962;28;20058;-69
2023/09/16 01:08:05;;;;;;;30.42;23.15;;;;;;;19.28;100.00;99711.78;4992344;28;20113;-70
2023/09/16 01:10:32;;;;;;;38.15;23.45;;;;;;;19.13;100.00;99707.97;4991525;28;20074;-69
2023/09/16 01:12:58;;;;;;;28.42;23.20;;;;;;;19.25;100.00;99708.91;4973526;28;20558;-69
2023/09/16 01:15:31;;;;;;;27.67;22.60;;;;;;;19.11;100.00;99713.22;4985083;28;20037;-69
2023/09/16 01:18:03;;;;;;;27.60;21.63;;;;;;;19.21;100.00;99712.53;4982346;28;20050;-69
2023/09/16 01:20:29;;;;;;;38.53;23.23;;;;;;;19.25;100.00;99709.72;4973299;28;20031;-69
2023/09/16 01:22:55;;;;;;;28.88;21.27;;;;;;;19.20;100.00;99713.72;4981567;28;20029;-69
2023/09/16 01:25:24;;;;;;;26.35;20.52;;;;;;;19.22;100.00;99716.97;4992297;28;20022;-69
2023/09/16 01:27:50;;;;;;;30.65;22.52;;;;;;;18.92;100.00;99726.31;4992341;28;20023;-69
2023/09/16 01:30:15;;;;;;;33.42;21.27;;;;;;;19.02;100.00;99719.19;4992544;28;20077;-69
2023/09/16 01:33:00;;;;;;;26.27;21.63;;;;;;;19.00;100.00;99720.78;4983456;28;20041;-69
2023/09/16 01:35:32;;;;;;;29.20;22.70;;;;;;;18.98;100.00;99723.16;4992510;28;20022;-69
2023/09/16 01:37:59;;;;;;;28.92;21.95;;;;;;;18.93;100.00;99716.59;4990847;28;20024;-70
2023/09/16 01:40:27;;;;;;;33.65;22.77;;;;;;;19.08;100.00;99722.50;4972962;28;20085;-69
2023/09/16 01:42:53;;;;;;;31.60;23.60;;;;;;;19.09;100.00;99724.13;4972975;28;20034;-70
2023/09/16 01:45:19;;;;;;;31.85;23.92;;;;;;;19.21;100.00;99726.69;4972949;28;20023;-69
2023/09/16 01:47:45;;;;;;;34.28;22.52;;;;;;;19.30;100.00;99731.22;4973657;28;20526;-69
2023/09/16 01:50:10;;;;;;;30.00;21.60;;;;;;;19.21;100.00;99731.53;4992095;28;20050;-69
2023/09/16 01:52:36;;;;;;;27.55;21.73;;;;;;;19.26;100.00;99736.06;4991313;28;20056;-69
2023/09/16 01:55:04;;;;;;;29.10;22.95;;;;;;;19.29;100.00;99732.44;4992318;28;20030;-69
2023/09/16 01:57:30;;;;;;;27.42;22.17;;;;;;;19.27;100.00;99720.66;4975431;28;20027;-69
2023/09/16 01:59:55;;;;;;;28.60;23.15;;;;;;;19.32;100.00;99714.66;4972614;28;20027;-69
2023/09/16 02:02:21;;;;;;;32.65;21.63;;;;;;;19.54;100.00;99715.69;4972519;28;20495;-69
2023/09/16 02:04:46;;;;;;;24.77;21.00;;;;;;;19.70;100.00;99712.59;4985280;28;20033;-70
2023/09/16 02:07:12;;;;;;;25.33;19.55;;;;;;;19.85;100.00;99707.03;4991605;28;20026;-69
2023/09/16 02:09:37;;;;;;;23.90;20.23;;;;;;;20.01;100.00;99706.78;4991713;28;20038;-69
2023/09/16 02:12:03;;;;;;;26.05;19.35;;;;;;;20.14;100.00;99718.63;4991728;28;20049;-69
2023/09/16 02:14:28;;;;;;;25.10;19.50;;;;;;;20.22;100.00;99714.63;4991543;28;20030;-69
2023/09/16 02:16:54;;;;;;;27.08;19.77;;;;;;;20.23;99.17;99710.59;4991909;28;20041;-69
2023/09/16 02:19:19;;;;;;;29.75;20.90;;;;;;;20.31;98.88;99715.09;4990587;28;20037;-70
2023/09/16 02:21:45;;;;;;;24.80;18.65;;;;;;;20.40;98.07;99713.94;4990613;28;20561;-70
2023/09/16 02:24:10;;;;;;;23.98;18.60;;;;;;;20.43;97.53;99707.47;4991794;28;20026;-70
2023/09/16 02:26:36;;;;;;;22.05;19.15;;;;;;;20.49;95.94;99700.19;4983513;28;20047;-69
2023/09/16 02:29:01;;;;;;;22.60;19.75;;;;;;;20.56;95.86;99705.91;4972194;28;20034;-69
2023/09/16 02:31:27;;;;;;;20.38;17.63;;;;;;;20.60;95.91;99700.25;4972202;28;20026;-69
2023/09/16 02:33:59;;;;;;;24.27;17.77;;;;;;;20.57;95.58;99701.03;4972308;28;20034;-69
2023/09/16 02:36:26;;;;;;;26.60;18.88;;;;;;;20.64;94.45;99694.59;4976481;28;20058;-69
2023/09/16 02:38:52;;;;;;;26.52;19.70;;;;;;;20.66;94.21;99695.00;4990381;28;20034;-69
2023/09/16 02:41:18;;;;;;;31.85;19.67;;;;;;;20.60;94.31;99689.69;4991699;28;20026;-69
2023/09/16 02:43:45;;;;;;;27.95;19.55;;;;;;;20.68;93.07;99696.22;4991623;28;20042;-69
2023/09/16 02:46:10;;;;;;;23.02;17.48;;;;;;;20.75;92.82;99701.13;4990723;28;20034;-69
2023/09/16 02:48:35;;;;;;;28.50;18.48;;;;;;;20.75;92.44;99707.63;4991435;28;20121;-69
2023/09/16 02:51:03;;;;;;;26.38;16.60;;;;;;;20.66;92.89;99692.97;4990467;28;20034;-69
2023/09/16 02:53:29;;;;;;;26.58;18.73;;;;;;;20.76;92.32;99697.09;4991193;28;20080;-69
2023/09/16 02:55:55;;;;;;;22.00;17.17;;;;;;;20.81;91.88;99704.38;4990314;28;20485;-69
2023/09/16 02:58:20;;;;;;;20.33;17.60;;;;;;;20.79;91.83;99696.28;4954712;28;20475;-69
2023/09/16 03:00:47;;;;;;;21.38;17.35;;;;;;;20.75;92.02;99692.59;4971103;28;20037;-69
2023/09/16 03:03:13;;;;;;;20.55;16.17;;;;;;;20.57;93.56;99684.81;4954681;28;20026;-69
2023/09/16 03:05:40;;;;;;;28.50;18.27;;;;;;;20.62;93.69;99697.81;4974314;28;20049;-70
2023/09/16 03:08:06;;;;;;;26.00;19.35;;;;;;;20.65;93.62;99693.38;4980443;28;20049;-69
2023/09/16 03:10:34;;;;;;;23.38;18.15;;;;;;;20.71;92.94;99688.94;4971952;28;20026;-69
2023/09/16 03:13:00;;;;;;;29.83;17.98;;;;;;;20.70;92.87;99693.81;4976099;28;20132;-69
2023/09/16 03:15:25;;;;;;;27.63;18.25;;;;;;;20.61;93.58;99687.69;4991302;28;20030;-70
2023/09/16 03:17:51;;;;;;;22.63;18.70;;;;;;;20.54;94.33;99685.63;4990979;28;20463;-69
2023/09/16 03:20:16;;;;;;;27.80;17.52;;;;;;;20.57;93.33;99679.13;4991017;28;20034;-69
2023/09/16 03:22:42;;;;;;;27.40;18.17;;;;;;;20.57;92.82;99681.97;4991125;28;20026;-69
2023/09/16 03:25:07;;;;;;;25.92;17.83;;;;;;;20.58;93.05;99691.31;4991056;28;20031;-71
2023/09/16 03:27:33;;;;;;;24.88;17.92;;;;;;;20.48;93.44;99678.66;4994621;28;20085;-69
2023/09/16 03:29:58;;;;;;;24.20;18.10;;;;;;;20.41;94.13;99681.50;4974707;28;20053;-69
2023/09/16 03:32:27;;;;;;;24.33;17.88;;;;;;;20.47;93.75;99685.56;4993259;28;20049;-69
2023/09/16 03:34:53;;;;;;;24.38;18.33;;;;;;;20.48;93.57;99696.53;4994359;28;20411;-69
2023/09/16 03:37:18;;;;;;;23.83;18.02;;;;;;;20.38;94.22;99693.63;4982252;28;20049;-69
2023/09/16 03:39:44;;;;;;;22.30;17.90;;;;;;;20.48;93.60;99699.38;4975228;28;20034;-69
2023/09/16 03:42:09;;;;;;;22.55;18.52;;;;;;;20.52;93.25;99693.72;4975006;28;20031;-69
2023/09/16 03:44:35;;;;;;;21.83;17.90;;;;;;;20.53;93.28;99694.53;4975088;28;20027;-69
2023/09/16 03:47:02;;;;;;;27.85;19.20;;;;;;;20.40;93.83;99691.22;4983300;28;20026;-69
2023/09/16 03:49:27;;;;;;;27.23;19.63;;;;;;;20.31;95.00;99692.38;4994309;28;20027;-69
2023/09/16 03:51:53;;;;;;;19.85;17.60;;;;;;;20.21;95.19;99693.13;4992654;28;20034;-68
2023/09/16 03:54:19;;;;;;;38.50;19.73;;;;;;;20.16;95.42;99697.16;4974838;28;20031;-69
2023/09/16 03:56:44;;;;;;;31.50;17.77;;;;;;;20.24;95.40;99697.22;4975001;28;20057;-69
2023/09/16 03:59:09;;;;;;;27.95;18.33;;;;;;;20.37;94.51;99704.19;4974920;28;20023;-69
2023/09/16 04:01:35;;;;;;;24.85;18.80;;;;;;;20.47;94.13;99702.59;4974901;28;20034;-69
2023/09/16 04:04:00;;;;;;;25.08;20.02;;;;;;;20.52;93.99;99702.25;4982466;28;20029;-69
2023/09/16 04:06:26;;;;;;;26.55;17.23;;;;;;;20.52;93.62;99699.41;4983474;28;20537;-69
2023/09/16 04:08:52;;;;;;;29.33;20.02;;;;;;;20.48;94.10;99698.56;4985078;28;20509;-69
2023/09/16 04:11:17;;;;;;;26.10;19.73;;;;;;;20.40;94.21;99705.44;4984348;28;20061;-69
2023/09/16 04:13:43;;;;;;;26.05;18.55;;;;;;;20.48;93.66;99707.91;4975515;28;20042;-70
2023/09/16 04:16:09;;;;;;;27.13;19.58;;;;;;;20.53;93.52;99706.72;4977701;28;20122;-69
2023/09/16 04:18:34;;;;;;;27.98;18.92;;;;;;;20.58;93.36;99714.84;4985245;28;20142;-69
2023/09/16 04:21:02;;;;;;;29.70;18.58;;;;;;;20.54;93.51;99708.34;4990221;28;20042;-69
2023/09/16 04:23:29;;;;;;;30.45;20.02;;;;;;;20.62;93.39;99704.31;4990093;28;20483;-69
2023/09/16 04:25:56;;;;;;;25.80;18.52;;;;;;;20.67;92.98;99713.69;4992950;28;20082;-69
2023/09/16 04:28:22;;;;;;;28.48;17.25;;;;;;;20.79;91.56;99712.50;4993712;28;20022;-69
2023/09/16 04:30:49;;;;;;;26.63;18.23;;;;;;;20.75;92.21;99712.47;4993757;28;20089;-69
2023/09/16 04:33:15;;;;;;;30.67;17.23;;;;;;;20.78;92.41;99711.72;4983037;28;20035;-69
2023/09/16 04:35:48;;;;;;;24.38;17.45;;;;;;;20.80;92.04;99717.78;4974238;28;20480;-69
2023/09/16 04:38:15;;;;;;;28.15;16.67;;;;;;;20.68;92.36;99715.31;4991287;28;20514;-69
2023/09/16 04:40:42;;;;;;;27.35;17.42;;;;;;;20.53;93.24;99723.75;4993249;28;20038;-69
2023/09/16 04:43:07;;;;;;;25.55;18.05;;;;;;;20.41;93.78;99721.25;4976063;28;20482;-69
2023/09/16 04:45:33;;;;;;;24.92;16.60;;;;;;;20.42;93.45;99711.53;4991521;28;20036;-69
2023/09/16 04:47:59;;;;;;;23.80;17.05;;;;;;;20.51;92.52;99714.00;4983504;28;20472;-69
2023/09/16 04:50:25;;;;;;;25.20;16.83;;;;;;;20.43;92.53;99718.81;4973854;28;20484;-69
2023/09/16 04:52:51;;;;;;;27.23;17.38;;;;;;;20.04;93.58;99723.03;4973824;28;20029;-69
2023/09/16 04:55:16;;;;;;;29.35;17.90;;;;;;;20.14;93.77;99732.81;4991534;28;20049;-69
2023/09/16 04:57:42;;;;;;;27.42;18.13;;;;;;;20.15;95.11;99732.44;4978147;28;20035;-69
2023/09/16 05:00:08;;;;;;;24.38;18.67;;;;;;;20.10;96.30;99738.50;4972642;28;20034;-70
2023/09/16 05:02:33;;;;;;;34.50;22.38;;;;;;;20.00;96.91;99731.50;4992719;28;20030;-70
2023/09/16 05:05:00;;;;;;;39.72;31.95;;;;;;;19.46;100.00;99739.50;4957868;28;20045;-70
2023/09/16 05:07:27;;;;;;;42.47;32.17;;;;;;;19.16;100.00;99741.19;4978789;28;20023;-70
2023/09/16 05:09:52;;;;;;;45.03;32.55;;;;;;;19.26;100.00;99741.72;4985687;28;20174;-72
2023/09/16 05:12:18;;;;;;;36.55;28.42;;;;;;;19.14;100.00;99749.28;4979964;28;20083;-68
2023/09/16 05:14:45;;;;;;;40.95;27.02;;;;;;;19.37;100.00;99748.31;4992623;28;20511;-70
2023/09/16 05:17:10;;;;;;;28.55;23.00;;;;;;;19.34;100.00;99760.44;4992206;28;20054;-70
2023/09/16 05:19:36;;;;;;;31.38;25.40;;;;;;;19.20;100.00;99755.44;4989330;28;20573;-70
2023/09/16 05:22:03;;;;;;;24.73;22.00;;;;;;;19.22;100.00;99770.84;4972285;28;20463;-70
2023/09/16 05:24:31;;;;;;;30.90;22.25;;;;;;;18.99;100.00;99759.59;4987814;28;20125;-70
2023/09/16 05:26:57;;;;;;;25.42;22.02;;;;;;;19.02;100.00;99764.53;4979692;28;20165;-72
2023/09/16 05:29:22;;;;;;;26.30;22.75;;;;;;;19.17;100.00;99770.38;4970684;28;20152;-72
2023/09/16 05:31:48;;;;;;;30.98;25.13;;;;;;;19.03;100.00;99771.00;4984403;28;20045;-72
2023/09/16 05:34:14;;;;;;;28.00;24.48;;;;;;;19.16;100.00;99778.06;4995409;28;20036;-70
2023/09/16 05:36:39;;;;;;;32.55;25.35;;;;;;;19.23;100.00;99777.31;4992746;28;20034;-71
2023/09/16 05:39:05;;;;;;;33.35;25.15;;;;;;;19.15;100.00;99784.94;4979387;28;20033;-71
2023/09/16 05:41:30;;;;;;;31.95;26.33;;;;;;;18.97;100.00;99784.69;4971541;28;20041;-69
2023/09/16 05:43:56;;;;;;;33.42;26.10;;;;;;;19.04;100.00;99781.97;4989698;28;20145;-69
2023/09/16 05:46:23;;;;;;;34.60;26.38;;;;;;;18.94;100.00;99785.44;4980746;28;20046;-69
2023/09/16 05:48:49;;;;;;;33.83;27.15;;;;;;;18.89;100.00;99785.81;4986913;28;20494;-68
2023/09/16 05:51:15;;;;;;;40.08;27.70;;;;;;;19.03;100.00;99805.03;4989100;28;20041;-72
2023/09/16 05:53:42;;;;;;;40.85;26.85;;;;;;;19.06;100.00;99810.75;4989037;28;20030;-74
2023/09/16 05:56:08;;;;;;;32.28;25.92;;;;;;;19.05;100.00;99802.63;4983686;28;20026;-69
2023/09/16 05:58:35;;;;;;;35.08;25.88;;;;;;;19.04;100.00;99803.81;4989580;28;20030;-72
2023/09/16 06:01:00;;;;;;;32.13;25.85;;;;;;;19.20;100.00;99815.78;4988602;28;20041;-71
2023/09/16 06:03:26;;;;;;;34.42;26.58;;;;;;;19.27;100.00;99809.41;4971931;28;20093;-74
2023/09/16 06:05:59;;;;;;;35.92;26.60;;;;;;;19.45;100.00;99826.63;4984966;28;20030;-73
2023/09/16 06:08:24;;;;;;;37.33;28.13;;;;;;;19.48;100.00;99830.69;4977170;28;20035;-72
2023/09/16 06:10:50;;;;;;;41.67;29.88;;;;;;;19.43;100.00;99833.88;4976477;28;20046;-71
2023/09/16 06:13:15;;;;;;;39.70;31.00;;;;;;;19.39;100.00;99835.88;4988785;28;20492;-71
2023/09/16 06:15:43;;;;;;;39.15;31.25;;;;;;;19.48;100.00;99825.84;4988888;28;20041;-75
2023/09/16 06:18:08;;;;;;;43.60;29.48;;;;;;;19.59;100.00;99840.13;4998479;28;20026;-71
2023/09/16 06:20:33;;;;;;;41.88;29.60;;;;;;;19.69;100.00;99843.50;4988782;28;20041;-70
2023/09/16 06:23:02;;;;;;;37.28;29.50;;;;;;;19.68;100.00;99851.19;4980141;28;20041;-72
2023/09/16 06:25:29;;;;;;;41.75;27.80;;;;;;;19.84;100.00;99850.13;4968704;28;20531;-70
2023/09/16 06:27:56;;;;;;;41.22;29.63;;;;;;;19.82;100.00;99855.41;4969632;28;20122;-70
2023/09/16 06:30:22;;;;;;;37.65;28.92;;;;;;;19.80;100.00;99861.44;4979344;28;20080;-71
2023/09/16 06:32:47;;;;;;;39.53;26.20;;;;;;;19.77;100.00;99862.22;4982146;28;20030;-70
2023/09/16 06:35:13;;;;;;;34.83;26.23;;;;;;;19.82;100.00;99870.38;4986692;28;20045;-70
2023/09/16 06:37:38;;;;;;;34.65;27.45;;;;;;;19.95;100.00;99865.28;4988175;28;20065;-70
2023/09/16 06:40:04;;;;;;;32.72;27.00;;;;;;;19.94;100.00;99866.50;4971785;28;20088;-70
2023/09/16 06:42:29;;;;;;;35.30;26.08;;;;;;;20.17;100.00;99885.38;4987060;28;20039;-71
2023/09/16 06:44:55;;;;;;;30.50;24.92;;;;;;;19.92;100.00;99883.09;4989050;28;20045;-72
2023/09/16 06:47:26;;;;;;;41.85;27.30;;;;;;;19.80;100.00;99881.31;4988889;28;20022;-71
2023/09/16 06:49:52;;;;;;;33.95;29.27;;;;;;;20.05;100.00;99890.13;4986954;28;20030;-71
2023/09/16 06:52:17;;;;;;;33.65;27.00;;;;;;;20.17;100.00;99894.69;4978806;28;20045;-72
2023/09/16 06:54:43;;;;;;;28.60;23.63;;;;;;;20.29;100.00;99884.25;4988482;28;20038;-70
2023/09/16 06:57:08;;;;;;;36.65;26.67;;;;;;;20.38;100.00;99896.13;4985610;28;20030;-70
2023/09/16 06:59:34;;;;;;;35.55;26.85;;;;;;;20.29;100.00;99893.63;4986397;28;20026;-69
2023/09/16 07:01:59;;;;;;;34.60;27.05;;;;;;;20.45;100.00;99899.03;4966273;28;20034;-69
2023/09/16 07:04:26;;;;;;;30.40;25.50;;;;;;;20.41;100.00;99895.31;4973309;28;20035;-68
2023/09/16 07:06:51;;;;;;;33.72;25.70;;;;;;;20.53;100.00;99904.75;4991059;28;20053;-72
2023/09/16 07:09:17;;;;;;;37.30;25.30;;;;;;;20.50;100.00;99909.19;4972170;28;20038;-70
2023/09/16 07:11:44;;;;;;;34.58;25.88;;;;;;;20.57;100.00;99903.59;4956774;28;20031;-70
2023/09/16 07:14:09;;;;;;;35.10;25.52;;;;;;;20.54;100.00;99907.22;4989765;28;20158;-69
2023/09/16 07:16:40;;;;;;;34.40;25.80;;;;;;;20.57;100.00;99912.13;4994532;28;20034;-69
2023/09/16 07:19:06;;;;;;;43.88;30.63;;;;;;;20.61;100.00;99915.00;4986958;28;20025;-74
2023/09/16 07:21:32;;;;;;;36.40;27.92;;;;;;;20.73;100.00;99913.84;4974604;28;20421;-74
2023/09/16 07:24:01;;;;;;;35.60;27.63;;;;;;;20.72;100.00;99915.06;4989621;28;20106;-75
2023/09/16 07:26:30;;;;;;;40.50;28.02;;;;;;;20.69;100.00;99913.00;4992972;28;20090;-74
2023/09/16 07:28:57;;;;;;;37.55;26.25;;;;;;;20.53;100.00;99916.97;4970164;28;20026;-73
2023/09/16 07:31:22;;;;;;;30.50;24.75;;;;;;;20.54;100.00;99918.59;4991959;28;20037;-74
2023/09/16 07:33:48;;;;;;;32.20;23.58;;;;;;;20.61;100.00;99917.81;4991656;28;20089;-74
2023/09/16 07:36:13;;;;;;;34.95;25.58;;;;;;;20.57;100.00;99912.13;4977418;28;20483;-74
2023/09/16 07:38:39;;;;;;;40.28;26.75;;;;;;;20.59;100.00;99923.09;4983301;28;20034;-73
2023/09/16 07:41:04;;;;;;;47.53;30.00;;;;;;;20.69;100.00;99922.34;4992830;28;20030;-74
2023/09/16 07:43:29;;;;;;;41.38;26.40;;;;;;;20.74;100.00;99929.69;4990867;28;20108;-74
2023/09/16 07:45:56;;;;;;;32.83;25.90;;;;;;;20.76;100.00;99928.09;4987513;28;20558;-74
2023/09/16 07:48:22;;;;;;;30.83;23.83;;;;;;;20.81;100.00;99926.09;4991931;28;20038;-74
2023/09/16 07:50:48;;;;;;;31.30;24.13;;;;;;;20.81;100.00;99920.41;4989494;28;20495;-74
2023/09/16 07:53:14;;;;;;;31.95;24.33;;;;;;;20.73;100.00;99919.53;4989992;28;20030;-74
2023/09/16 07:55:39;;;;;;;34.55;24.58;;;;;;;20.86;100.00;99922.94;4989216;28;20045;-74
2023/09/16 07:58:05;;;;;;;28.45;22.45;;;;;;;20.87;100.00;99913.97;4990181;28;20082;-74
2023/09/16 08:00:30;;;;;;;31.52;21.42;;;;;;;20.93;100.00;99917.28;4990389;28;20438;-74
2023/09/16 08:02:56;;;;;;;29.83;23.27;;;;;;;21.00;100.00;99922.22;4987461;28;20049;-74
2023/09/16 08:05:21;;;;;;;32.70;22.10;;;;;;;21.02;100.00;99922.63;4991241;28;20025;-74
2023/09/16 08:07:47;;;;;;;28.27;22.92;;;;;;;21.02;100.00;99919.78;4991415;28;20026;-74
2023/09/16 08:10:13;;;;;;;32.10;23.35;;;;;;;21.07;100.00;99925.09;4988943;28;20022;-74
2023/09/16 08:12:38;;;;;;;30.35;23.58;;;;;;;20.99;100.00;99918.53;4989981;28;20100;-74
2023/09/16 08:15:06;;;;;;;28.02;21.30;;;;;;;21.10;100.00;99927.13;4993302;28;20026;-74
2023/09/16 08:17:32;;;;;;;28.00;21.70;;;;;;;21.21;100.00;99926.38;4990147;28;20015;-74
2023/09/16 08:19:58;;;;;;;28.25;20.85;;;;;;;21.20;100.00;99936.97;4990888;28;20030;-74
2023/09/16 08:22:24;;;;;;;25.95;20.05;;;;;;;21.14;100.00;99933.69;4972033;28;20018;-74
2023/09/16 08:24:50;;;;;;;29.17;20.27;;;;;;;21.07;100.00;99941.34;4971721;28;20167;-75
2023/09/16 08:27:16;;;;;;;24.48;19.63;;;;;;;21.14;100.00;99939.38;4991190;28;20057;-74
2023/09/16 08:29:41;;;;;;;26.30;19.48;;;;;;;21.14;100.00;99938.53;4984821;28;20026;-74
2023/09/16 08:32:07;;;;;;;26.17;18.88;;;;;;;21.17;100.00;99938.56;4991035;28;20372;-74
2023/09/16 08:34:33;;;;;;;23.95;18.33;;;;;;;21.28;100.00;99924.41;4986952;28;20088;-75
2023/09/16 08:36:58;;;;;;;33.15;18.33;;;;;;;21.32;100.00;99922.41;4984435;28;20101;-73
2023/09/16 08:39:24;;;;;;;41.35;19.00;;;;;;;21.34;100.00;99924.84;4986170;28;20019;-71
2023/09/16 08:42:24;;;;;;;25.33;18.48;;;;;;;21.39;100.00;99933.00;4984191;28;20037;-73
2023/09/16 08:44:55;;;;;;;24.35;18.23;;;;;;;21.40;100.00;99928.94;4963676;28;20046;-74
2023/09/16 08:47:28;;;;;;;27.77;18.50;;;;;;;21.42;100.00;99934.25;4985220;28;20519;-73
2023/09/16 08:50:02;;;;;;;27.73;18.60;;;;;;;21.42;100.00;99932.22;4987611;28;20026;-73
2023/09/16 08:52:33;;;;;;;22.17;18.67;;;;;;;21.44;100.00;99931.81;4997994;28;20070;-73
2023/09/16 08:54:59;;;;;;;28.70;20.35;;;;;;;21.46;100.00;99927.34;4979964;28;20037;-73
2023/09/16 08:57:25;;;;;;;32.35;19.98;;;;;;;21.51;100.00;99919.66;4988016;28;20076;-73
2023/09/16 08:59:53;;;;;;;22.08;19.55;;;;;;;21.50;100.00;99910.28;4987262;28;20022;-72
2023/09/16 09:02:18;;;;;;;25.13;18.90;;;;;;;21.59;100.00;99904.22;4995244;28;20052;-72
2023/09/16 09:04:44;;;;;;;28.20;20.33;;;;;;;21.78;100.00;99897.44;4990525;28;20559;-74
2023/09/16 09:07:11;;;;;;;27.05;19.23;;;;;;;21.84;99.52;99894.97;4984059;28;20388;-71
2023/09/16 09:09:36;;;;;;;25.15;20.13;;;;;;;21.91;100.00;99897.88;4985138;28;20462;-71
2023/09/16 09:12:03;;;;;;;25.48;20.05;;;;;;;22.26;100.00;99904.84;4986134;28;20038;-75
2023/09/16 09:14:30;;;;;;;20.48;18.00;;;;;;;22.55;99.46;99909.78;4984507;28;20037;-73
2023/09/16 09:16:58;;;;;;;28.05;18.30;;;;;;;22.87;95.71;99914.69;4988122;28;20030;-75
2023/09/16 09:19:26;;;;;;;21.65;16.10;;;;;;;22.74;89.14;99917.13;4972620;28;20031;-73
2023/09/16 09:21:56;;;;;;;576.95;467.70;;;;;;;23.36;99.02;99911.34;4982660;28;20030;-72
2023/09/16 09:24:21;;;;;;;98.55;72.10;;;;;;;23.50;91.13;99899.88;4991057;28;20022;-76
2023/09/16 09:26:47;;;;;;;217.85;164.05;;;;;;;24.11;93.56;99903.66;4952520;28;1158441;-74
2023/09/16 09:29:13;;;;;;;36.38;32.55;;;;;;;23.75;84.31;99903.84;4978838;28;20065;-73
2023/09/16 09:31:39;;;;;;;299.40;211.32;;;;;;;24.10;87.45;99910.59;4975362;28;20045;-76
2023/09/16 09:34:14;;;;;;;209.77;147.32;;;;;;;24.06;81.26;99913.47;4991467;28;20026;-75
2023/09/16 09:36:40;;;;;;;33.13;27.55;;;;;;;23.74;78.99;99907.91;4979175;28;20046;-76
2023/09/16 09:39:08;;;;;;;50.70;40.80;;;;;;;23.80;82.95;99911.97;4990145;28;20030;-75
2023/09/16 09:41:49;;;;;;;42.22;22.58;;;;;;;24.38;82.07;99917.38;4989941;28;20026;-73
2023/09/16 09:44:15;;;;;;;33.92;30.20;;;;;;;23.89;79.46;99909.50;4988181;28;20525;-70
2023/09/16 09:46:41;;;;;;;18.45;15.18;;;;;;;23.75;83.25;99907.50;4988090;28;20042;-70
2023/09/16 09:49:08;;;;;;;25.13;20.13;;;;;;;24.10;85.37;99896.31;4973189;28;20466;-73
2023/09/16 09:51:34;;;;;;;29.45;24.55;;;;;;;24.99;79.82;99896.03;4975084;28;21490;-74
2023/09/16 09:54:00;;;;;;;25.70;18.45;;;;;;;25.25;76.61;99893.72;4983898;28;20066;-73
2023/09/16 09:56:25;;;;;;;31.85;15.85;;;;;;;24.78;75.60;99897.03;4989778;28;20018;-73
2023/09/16 09:58:51;;;;;;;18.48;15.40;;;;;;;24.91;77.44;99889.56;5005004;28;20018;-74
2023/09/16 10:01:16;;;;;;;20.45;15.98;;;;;;;25.02;76.34;99897.22;4977339;28;20025;-71
2023/09/16 10:03:48;;;;;;;101.75;74.95;;;;;;;25.29;79.08;99893.69;4966533;28;20026;-73
2023/09/16 10:06:16;;;;;;;43.20;31.25;;;;;;;26.03;73.61;99883.72;4997007;28;20019;-73
2023/09/16 10:08:42;;;;;;;25.65;13.82;;;;;;;27.40;73.49;99891.28;4989765;28;20034;-76
2023/09/16 10:11:07;;;;;;;13.35;11.10;;;;;;;29.04;63.12;99891.19;4990048;28;20034;-73
2023/09/16 10:13:33;;;;;;;15.05;10.73;;;;;;;29.86;61.10;99895.06;4983586;28;20027;-71
2023/09/16 10:16:02;;;;;;;18.67;11.57;;;;;;;29.93;56.63;99897.72;4987682;28;20412;-72
2023/09/16 10:18:28;;;;;;;14.00;11.57;;;;;;;29.67;61.99;99889.00;4972505;28;20055;-80
2023/09/16 10:20:55;;;;;;;18.95;12.45;;;;;;;29.40;60.81;99884.41;4981269;28;20056;-74
2023/09/16 10:23:33;;;;;;;;;;;;;;;;;;;;;
2023/09/16 10:26:00;;;;;;;20.55;14.63;;;;;;;30.10;53.80;99881.13;4991963;28;20049;-79
2023/09/16 10:28:25;;;;;;;11.30;10.05;;;;;;;29.86;53.17;99881.44;4989274;28;20034;-72
2023/09/16 10:30:51;;;;;;;13.45;12.00;;;;;;;30.38;58.76;99875.72;4995814;28;20026;-72
2023/09/16 10:33:19;;;;;;;20.05;11.40;;;;;;;30.43;56.03;99877.22;4991871;28;20022;-72
2023/09/16 10:35:44;;;;;;;13.20;10.35;;;;;;;29.99;53.89;99872.81;4976126;28;20022;-73
2023/09/16 10:38:12;;;;;;;15.60;11.85;;;;;;;29.05;56.68;99873.47;4992285;28;20034;-76
2023/09/16 10:40:39;;;;;;;12.82;11.32;;;;;;;28.13;57.70;99873.28;4966135;28;20021;-72
2023/09/16 10:43:05;;;;;;;13.48;11.73;;;;;;;27.91;58.93;99870.09;4983411;28;20034;-73
2023/09/16 10:45:31;;;;;;;14.85;11.13;;;;;;;27.35;59.83;99866.75;4980657;28;20023;-75
2023/09/16 10:47:59;;;;;;;14.80;12.18;;;;;;;27.00;62.60;99855.53;4985646;28;20415;-73
2023/09/16 10:50:29;;;;;;;21.73;12.82;;;;;;;26.80;63.36;99855.47;4977210;28;20101;-73
2023/09/16 10:53:10;;;;;;;18.60;14.18;;;;;;;26.55;63.61;99855.94;4979869;28;20049;-73
2023/09/16 10:55:58;;;;;;;15.85;11.85;;;;;;;26.07;65.87;99856.66;4969944;28;20496;-73
2023/09/16 10:58:46;;;;;;;15.00;12.60;;;;;;;25.92;67.14;99855.25;4978959;28;20407;-73
2023/09/16 11:01:17;;;;;;;16.67;13.15;;;;;;;25.65;66.54;99848.25;4962213;28;20035;-72
2023/09/16 11:03:49;;;;;;;18.63;13.25;;;;;;;25.26;68.73;99855.28;4987397;28;20045;-73
2023/09/16 11:06:15;;;;;;;18.98;13.65;;;;;;;25.26;69.04;99846.69;4989743;28;20115;-73
2023/09/16 11:08:40;;;;;;;17.35;13.02;;;;;;;25.26;69.06;99846.69;4993533;28;20515;-73
2023/09/16 11:11:06;;;;;;;15.43;13.75;;;;;;;25.21;70.37;99847.13;4997994;28;20057;-72
2023/09/16 11:13:32;;;;;;;16.65;13.57;;;;;;;25.49;70.78;99848.06;4999181;28;20093;-73